sensor_id;sensor_type;location;lat;lon;timestamp;temperature;humidity
75961;SHT30;64644;48.914;2.254;2022-10-26T00:02:10;19.35;70.00
75961;SHT30;64644;48.914;2.254;2022-10-26T00:04:35;19.32;70.11
75961;SHT30;64644;48.914;2.254;2022-10-26T00:07:00;19.31;70.13
75961;SHT30;64644;48.914;2.254;2022-10-26T00:09:26;19.30;69.96
75961;SHT30;64644;48.914;2.254;2022-10-26T00:11:51;19.31;70.00
75961;SHT30;64644;48.914;2.254;2022-10-26T00:14:17;19.30;70.09
75961;SHT30;64644;48.914;2.254;2022-10-26T00:16:43;19.32;70.14
75961;SHT30;64644;48.914;2.254;2022-10-26T00:19:08;19.31;70.10
75961;SHT30;64644;48.914;2.254;2022-10-26T00:21:33;19.31;69.99
75961;SHT30;64644;48.914;2.254;2022-10-26T00:23:59;19.31;70.11
75961;SHT30;64644;48.914;2.254;2022-10-26T00:26:24;19.30;70.13
75961;SHT30;64644;48.914;2.254;2022-10-26T00:28:54;19.32;69.96
75961;SHT30;64644;48.914;2.254;2022-10-26T00:31:21;19.32;69.83
75961;SHT30;64644;48.914;2.254;2022-10-26T00:33:46;19.32;70.05
75961;SHT30;64644;48.914;2.254;2022-10-26T00:36:12;19.34;69.85
75961;SHT30;64644;48.914;2.254;2022-10-26T00:38:41;19.36;69.73
75961;SHT30;64644;48.914;2.254;2022-10-26T00:41:29;19.32;69.77
75961;SHT30;64644;48.914;2.254;2022-10-26T00:43:55;19.35;69.70
75961;SHT30;64644;48.914;2.254;2022-10-26T00:46:27;19.34;69.71
75961;SHT30;64644;48.914;2.254;2022-10-26T00:48:56;19.35;69.48
75961;SHT30;64644;48.914;2.254;2022-10-26T00:51:30;19.34;69.36
75961;SHT30;64644;48.914;2.254;2022-10-26T00:54:03;19.30;69.34
75961;SHT30;64644;48.914;2.254;2022-10-26T00:56:30;19.30;69.40
75961;SHT30;64644;48.914;2.254;2022-10-26T00:59:01;19.25;69.14
75961;SHT30;64644;48.914;2.254;2022-10-26T01:01:28;19.24;69.22
75961;SHT30;64644;48.914;2.254;2022-10-26T01:03:55;19.20;69.22
75961;SHT30;64644;48.914;2.254;2022-10-26T01:06:21;19.14;69.26
75961;SHT30;64644;48.914;2.254;2022-10-26T01:08:47;19.15;69.32
75961;SHT30;64644;48.914;2.254;2022-10-26T01:11:12;19.15;69.31
75961;SHT30;64644;48.914;2.254;2022-10-26T01:13:38;19.13;69.16
75961;SHT30;64644;48.914;2.254;2022-10-26T01:21:32;19.13;69.45
75961;SHT30;64644;48.914;2.254;2022-10-26T01:24:19;19.13;69.44
75961;SHT30;64644;48.914;2.254;2022-10-26T01:29:50;19.13;69.38
75961;SHT30;64644;48.914;2.254;2022-10-26T01:32:31;19.13;69.42
75961;SHT30;64644;48.914;2.254;2022-10-26T01:35:09;19.08;69.62
75961;SHT30;64644;48.914;2.254;2022-10-26T01:37:45;19.10;69.57
75961;SHT30;64644;48.914;2.254;2022-10-26T01:40:26;19.08;69.53
75961;SHT30;64644;48.914;2.254;2022-10-26T01:42:56;19.08;69.42
75961;SHT30;64644;48.914;2.254;2022-10-26T01:45:23;19.04;69.58
75961;SHT30;64644;48.914;2.254;2022-10-26T01:47:51;19.03;69.45
75961;SHT30;64644;48.914;2.254;2022-10-26T01:50:18;18.97;69.46
75961;SHT30;64644;48.914;2.254;2022-10-26T01:52:48;18.97;69.62
75961;SHT30;64644;48.914;2.254;2022-10-26T01:58:04;19.03;69.44
75961;SHT30;64644;48.914;2.254;2022-10-26T02:00:36;19.00;69.58
75961;SHT30;64644;48.914;2.254;2022-10-26T02:03:19;19.03;69.49
75961;SHT30;64644;48.914;2.254;2022-10-26T02:05:58;19.03;69.47
75961;SHT30;64644;48.914;2.254;2022-10-26T02:11:13;19.08;69.56
75961;SHT30;64644;48.914;2.254;2022-10-26T02:14:00;19.08;69.33
75961;SHT30;64644;48.914;2.254;2022-10-26T02:19:09;19.08;69.33
75961;SHT30;64644;48.914;2.254;2022-10-26T02:21:43;19.08;69.35
75961;SHT30;64644;48.914;2.254;2022-10-26T02:24:11;19.07;69.33
75961;SHT30;64644;48.914;2.254;2022-10-26T02:26:39;19.07;69.49
75961;SHT30;64644;48.914;2.254;2022-10-26T02:29:08;19.11;69.41
75961;SHT30;64644;48.914;2.254;2022-10-26T02:31:36;19.13;69.32
75961;SHT30;64644;48.914;2.254;2022-10-26T02:34:04;19.14;69.23
75961;SHT30;64644;48.914;2.254;2022-10-26T02:36:33;19.14;69.34
75961;SHT30;64644;48.914;2.254;2022-10-26T02:39:02;19.14;69.37
75961;SHT30;64644;48.914;2.254;2022-10-26T02:41:29;19.17;69.25
75961;SHT30;64644;48.914;2.254;2022-10-26T02:44:03;19.15;69.31
75961;SHT30;64644;48.914;2.254;2022-10-26T02:46:32;19.17;69.21
75961;SHT30;64644;48.914;2.254;2022-10-26T02:48:57;19.18;69.29
75961;SHT30;64644;48.914;2.254;2022-10-26T02:51:32;19.17;69.23
75961;SHT30;64644;48.914;2.254;2022-10-26T02:57:22;19.18;69.25
75961;SHT30;64644;48.914;2.254;2022-10-26T02:59:49;19.21;69.24
75961;SHT30;64644;48.914;2.254;2022-10-26T03:02:16;19.24;69.23
75961;SHT30;64644;48.914;2.254;2022-10-26T03:04:43;19.24;69.08
75961;SHT30;64644;48.914;2.254;2022-10-26T03:07:08;19.24;69.18
75961;SHT30;64644;48.914;2.254;2022-10-26T03:09:34;19.30;69.03
75961;SHT30;64644;48.914;2.254;2022-10-26T03:11:59;19.25;69.00
75961;SHT30;64644;48.914;2.254;2022-10-26T03:14:24;19.28;69.02
75961;SHT30;64644;48.914;2.254;2022-10-26T03:16:50;19.30;69.01
75961;SHT30;64644;48.914;2.254;2022-10-26T03:19:15;19.32;68.94
75961;SHT30;64644;48.914;2.254;2022-10-26T03:21:41;19.32;68.93
75961;SHT30;64644;48.914;2.254;2022-10-26T03:24:07;19.35;68.85
75961;SHT30;64644;48.914;2.254;2022-10-26T03:26:33;19.39;68.85
75961;SHT30;64644;48.914;2.254;2022-10-26T03:28:58;19.44;68.96
75961;SHT30;64644;48.914;2.254;2022-10-26T03:31:24;19.45;68.73
75961;SHT30;64644;48.914;2.254;2022-10-26T03:33:49;19.45;68.73
75961;SHT30;64644;48.914;2.254;2022-10-26T03:36:14;19.48;68.60
75961;SHT30;64644;48.914;2.254;2022-10-26T03:38:40;19.48;68.59
75961;SHT30;64644;48.914;2.254;2022-10-26T03:41:05;19.48;68.47
75961;SHT30;64644;48.914;2.254;2022-10-26T03:43:30;19.49;68.41
75961;SHT30;64644;48.914;2.254;2022-10-26T03:45:56;19.47;68.32
75961;SHT30;64644;48.914;2.254;2022-10-26T03:48:21;19.41;68.40
75961;SHT30;64644;48.914;2.254;2022-10-26T03:50:46;19.36;68.50
75961;SHT30;64644;48.914;2.254;2022-10-26T03:53:12;19.32;68.57
75961;SHT30;64644;48.914;2.254;2022-10-26T03:55:37;19.30;68.65
75961;SHT30;64644;48.914;2.254;2022-10-26T03:58:02;19.30;68.62
75961;SHT30;64644;48.914;2.254;2022-10-26T04:00:28;19.27;68.70
75961;SHT30;64644;48.914;2.254;2022-10-26T04:02:58;19.23;68.78
75961;SHT30;64644;48.914;2.254;2022-10-26T04:05:25;19.21;68.91
75961;SHT30;64644;48.914;2.254;2022-10-26T04:08:00;19.20;68.85
75961;SHT30;64644;48.914;2.254;2022-10-26T04:10:29;19.18;68.96
75961;SHT30;64644;48.914;2.254;2022-10-26T04:12:56;19.15;68.97
75961;SHT30;64644;48.914;2.254;2022-10-26T04:15:23;19.14;68.94
75961;SHT30;64644;48.914;2.254;2022-10-26T04:17:56;19.08;69.07
75961;SHT30;64644;48.914;2.254;2022-10-26T04:20:22;19.06;69.11
75961;SHT30;64644;48.914;2.254;2022-10-26T04:22:58;19.06;69.24
75961;SHT30;64644;48.914;2.254;2022-10-26T04:25:24;19.04;69.15
75961;SHT30;64644;48.914;2.254;2022-10-26T04:27:50;19.00;69.22
75961;SHT30;64644;48.914;2.254;2022-10-26T04:30:15;19.02;69.25
75961;SHT30;64644;48.914;2.254;2022-10-26T04:32:40;18.95;69.33
75961;SHT30;64644;48.914;2.254;2022-10-26T04:35:06;18.97;69.31
75961;SHT30;64644;48.914;2.254;2022-10-26T04:37:32;18.93;69.41
75961;SHT30;64644;48.914;2.254;2022-10-26T04:39:58;18.90;69.38
75961;SHT30;64644;48.914;2.254;2022-10-26T04:42:23;18.89;69.54
75961;SHT30;64644;48.914;2.254;2022-10-26T04:44:48;18.87;69.44
75961;SHT30;64644;48.914;2.254;2022-10-26T04:47:14;18.89;69.44
75961;SHT30;64644;48.914;2.254;2022-10-26T04:49:39;18.85;69.67
75961;SHT30;64644;48.914;2.254;2022-10-26T04:52:05;18.83;69.61
75961;SHT30;64644;48.914;2.254;2022-10-26T04:54:30;18.83;69.69
75961;SHT30;64644;48.914;2.254;2022-10-26T04:56:56;18.82;69.58
75961;SHT30;64644;48.914;2.254;2022-10-26T04:59:21;18.79;69.78
75961;SHT30;64644;48.914;2.254;2022-10-26T05:01:46;18.79;69.76
75961;SHT30;64644;48.914;2.254;2022-10-26T05:04:12;18.77;69.71
75961;SHT30;64644;48.914;2.254;2022-10-26T05:06:37;18.77;69.71
75961;SHT30;64644;48.914;2.254;2022-10-26T05:09:03;18.76;69.67
75961;SHT30;64644;48.914;2.254;2022-10-26T05:11:28;18.73;69.70
75961;SHT30;64644;48.914;2.254;2022-10-26T05:13:53;18.75;69.82
75961;SHT30;64644;48.914;2.254;2022-10-26T05:16:19;18.69;69.83
75961;SHT30;64644;48.914;2.254;2022-10-26T05:18:47;18.70;69.77
75961;SHT30;64644;48.914;2.254;2022-10-26T05:21:12;18.68;69.88
75961;SHT30;64644;48.914;2.254;2022-10-26T05:23:43;18.70;69.86
75961;SHT30;64644;48.914;2.254;2022-10-26T05:26:09;18.66;69.91
75961;SHT30;64644;48.914;2.254;2022-10-26T05:28:34;18.69;69.96
75961;SHT30;64644;48.914;2.254;2022-10-26T05:31:00;18.63;69.93
75961;SHT30;64644;48.914;2.254;2022-10-26T05:33:25;18.62;70.09
75961;SHT30;64644;48.914;2.254;2022-10-26T05:35:53;18.58;70.30
75961;SHT30;64644;48.914;2.254;2022-10-26T05:38:19;18.62;70.18
75961;SHT30;64644;48.914;2.254;2022-10-26T05:40:49;18.61;70.30
75961;SHT30;64644;48.914;2.254;2022-10-26T05:43:15;18.59;70.23
75961;SHT30;64644;48.914;2.254;2022-10-26T05:45:40;18.63;70.31
75961;SHT30;64644;48.914;2.254;2022-10-26T05:48:06;18.61;70.28
75961;SHT30;64644;48.914;2.254;2022-10-26T05:50:31;18.59;70.43
75961;SHT30;64644;48.914;2.254;2022-10-26T05:52:57;18.59;70.42
75961;SHT30;64644;48.914;2.254;2022-10-26T05:55:22;18.55;70.54
75961;SHT30;64644;48.914;2.254;2022-10-26T05:57:48;18.53;70.70
75961;SHT30;64644;48.914;2.254;2022-10-26T06:00:19;18.59;70.79
75961;SHT30;64644;48.914;2.254;2022-10-26T06:02:54;18.63;70.79
75961;SHT30;64644;48.914;2.254;2022-10-26T06:05:26;18.65;70.59
75961;SHT30;64644;48.914;2.254;2022-10-26T06:07:53;18.68;70.61
75961;SHT30;64644;48.914;2.254;2022-10-26T06:10:19;18.68;70.35
75961;SHT30;64644;48.914;2.254;2022-10-26T06:12:44;18.68;70.60
75961;SHT30;64644;48.914;2.254;2022-10-26T06:15:20;18.69;70.36
75961;SHT30;64644;48.914;2.254;2022-10-26T06:18:08;18.70;70.59
75961;SHT30;64644;48.914;2.254;2022-10-26T06:23:46;18.80;70.43
75961;SHT30;64644;48.914;2.254;2022-10-26T06:26:32;18.86;70.41
75961;SHT30;64644;48.914;2.254;2022-10-26T06:31:43;18.89;70.34
75961;SHT30;64644;48.914;2.254;2022-10-26T06:34:11;18.87;70.33
75961;SHT30;64644;48.914;2.254;2022-10-26T06:36:40;18.89;70.34
75961;SHT30;64644;48.914;2.254;2022-10-26T06:39:09;18.87;70.05
75961;SHT30;64644;48.914;2.254;2022-10-26T06:41:35;18.85;70.09
75961;SHT30;64644;48.914;2.254;2022-10-26T06:44:02;18.86;70.19
75961;SHT30;64644;48.914;2.254;2022-10-26T06:46:46;18.89;70.09
75961;SHT30;64644;48.914;2.254;2022-10-26T06:49:21;18.89;70.04
75961;SHT30;64644;48.914;2.254;2022-10-26T06:52:04;18.87;69.96
75961;SHT30;64644;48.914;2.254;2022-10-26T06:54:50;18.86;69.97
75961;SHT30;64644;48.914;2.254;2022-10-26T06:57:21;18.86;69.88
75961;SHT30;64644;48.914;2.254;2022-10-26T06:59:52;18.87;69.91
75961;SHT30;64644;48.914;2.254;2022-10-26T07:02:20;18.83;69.85
75961;SHT30;64644;48.914;2.254;2022-10-26T07:04:45;18.83;69.94
75961;SHT30;64644;48.914;2.254;2022-10-26T07:07:13;18.82;69.86
75961;SHT30;64644;48.914;2.254;2022-10-26T07:09:39;18.85;69.91
75961;SHT30;64644;48.914;2.254;2022-10-26T07:12:05;18.79;69.90
75961;SHT30;64644;48.914;2.254;2022-10-26T07:14:31;18.80;69.95
75961;SHT30;64644;48.914;2.254;2022-10-26T07:16:56;18.77;69.90
75961;SHT30;64644;48.914;2.254;2022-10-26T07:19:22;18.76;69.77
75961;SHT30;64644;48.914;2.254;2022-10-26T07:21:47;18.75;69.99
75961;SHT30;64644;48.914;2.254;2022-10-26T07:24:13;18.72;69.99
75961;SHT30;64644;48.914;2.254;2022-10-26T07:26:39;18.69;69.94
75961;SHT30;64644;48.914;2.254;2022-10-26T07:29:04;18.65;69.94
75961;SHT30;64644;48.914;2.254;2022-10-26T07:31:29;18.66;70.13
75961;SHT30;64644;48.914;2.254;2022-10-26T07:33:55;18.65;69.91
75961;SHT30;64644;48.914;2.254;2022-10-26T07:36:20;18.66;70.13
75961;SHT30;64644;48.914;2.254;2022-10-26T07:38:46;18.68;70.20
75961;SHT30;64644;48.914;2.254;2022-10-26T07:41:11;18.68;70.20
75961;SHT30;64644;48.914;2.254;2022-10-26T07:43:37;18.69;70.01
75961;SHT30;64644;48.914;2.254;2022-10-26T07:46:02;18.70;70.17
75961;SHT30;64644;48.914;2.254;2022-10-26T07:48:27;18.72;70.19
75961;SHT30;64644;48.914;2.254;2022-10-26T07:50:53;18.72;69.99
75961;SHT30;64644;48.914;2.254;2022-10-26T07:53:18;18.72;70.03
75961;SHT30;64644;48.914;2.254;2022-10-26T07:55:52;18.70;70.16
75961;SHT30;64644;48.914;2.254;2022-10-26T07:58:18;18.72;70.24
75961;SHT30;64644;48.914;2.254;2022-10-26T08:00:48;18.75;69.95
75961;SHT30;64644;48.914;2.254;2022-10-26T08:03:13;18.73;70.05
75961;SHT30;64644;48.914;2.254;2022-10-26T08:05:39;18.69;70.12
75961;SHT30;64644;48.914;2.254;2022-10-26T08:08:04;18.70;70.32
75961;SHT30;64644;48.914;2.254;2022-10-26T08:10:29;18.72;70.14
75961;SHT30;64644;48.914;2.254;2022-10-26T08:12:55;18.77;70.24
75961;SHT30;64644;48.914;2.254;2022-10-26T08:15:20;18.79;70.41
75961;SHT30;64644;48.914;2.254;2022-10-26T08:17:45;18.85;70.16
75961;SHT30;64644;48.914;2.254;2022-10-26T08:20:11;18.92;70.12
75961;SHT30;64644;48.914;2.254;2022-10-26T08:22:36;18.96;70.07
75961;SHT30;64644;48.914;2.254;2022-10-26T08:25:02;19.00;70.07
75961;SHT30;64644;48.914;2.254;2022-10-26T08:27:27;19.06;70.16
75961;SHT30;64644;48.914;2.254;2022-10-26T08:29:52;19.14;70.02
75961;SHT30;64644;48.914;2.254;2022-10-26T08:32:18;19.23;70.05
75961;SHT30;64644;48.914;2.254;2022-10-26T08:34:43;19.30;69.75
75961;SHT30;64644;48.914;2.254;2022-10-26T08:37:08;19.34;69.83
75961;SHT30;64644;48.914;2.254;2022-10-26T08:39:34;19.41;69.86
75961;SHT30;64644;48.914;2.254;2022-10-26T08:42:18;19.47;69.56
75961;SHT30;64644;48.914;2.254;2022-10-26T08:44:49;19.55;69.54
75961;SHT30;64644;48.914;2.254;2022-10-26T08:47:31;19.61;69.53
75961;SHT30;64644;48.914;2.254;2022-10-26T08:50:02;19.68;69.36
75961;SHT30;64644;48.914;2.254;2022-10-26T08:52:39;19.75;69.18
75961;SHT30;64644;48.914;2.254;2022-10-26T08:55:13;19.82;68.89
75961;SHT30;64644;48.914;2.254;2022-10-26T08:57:40;19.87;68.77
75961;SHT30;64644;48.914;2.254;2022-10-26T09:00:10;19.97;68.72
75961;SHT30;64644;48.914;2.254;2022-10-26T09:02:37;20.01;68.54
75961;SHT30;64644;48.914;2.254;2022-10-26T09:05:02;20.07;68.36
75961;SHT30;64644;48.914;2.254;2022-10-26T09:07:50;20.18;68.37
75961;SHT30;64644;48.914;2.254;2022-10-26T09:13:24;20.32;67.95
75961;SHT30;64644;48.914;2.254;2022-10-26T09:15:55;20.39;67.76
75961;SHT30;64644;48.914;2.254;2022-10-26T09:20:55;20.48;67.30
75961;SHT30;64644;48.914;2.254;2022-10-26T09:23:52;20.58;67.34
75961;SHT30;64644;48.914;2.254;2022-10-26T09:26:30;20.66;66.78
75961;SHT30;64644;48.914;2.254;2022-10-26T09:29:01;20.76;66.63
75961;SHT30;64644;48.914;2.254;2022-10-26T09:31:27;20.89;66.53
75961;SHT30;64644;48.914;2.254;2022-10-26T09:33:54;20.94;66.45
75961;SHT30;64644;48.914;2.254;2022-10-26T09:36:21;20.99;66.41
75961;SHT30;64644;48.914;2.254;2022-10-26T09:38:55;21.03;66.25
75961;SHT30;64644;48.914;2.254;2022-10-26T09:41:30;21.06;65.73
75961;SHT30;64644;48.914;2.254;2022-10-26T09:46:57;21.23;65.48
75961;SHT30;64644;48.914;2.254;2022-10-26T09:49:42;21.30;65.23
75961;SHT30;64644;48.914;2.254;2022-10-26T09:52:13;21.34;64.96
75961;SHT30;64644;48.914;2.254;2022-10-26T09:54:38;21.42;63.98
75961;SHT30;64644;48.914;2.254;2022-10-26T09:57:06;21.49;64.01
75961;SHT30;64644;48.914;2.254;2022-10-26T09:59:36;21.53;64.08
75961;SHT30;64644;48.914;2.254;2022-10-26T10:04:57;21.72;63.83
75961;SHT30;64644;48.914;2.254;2022-10-26T10:07:23;21.75;63.53
75961;SHT30;64644;48.914;2.254;2022-10-26T10:12:40;21.83;63.48
75961;SHT30;64644;48.914;2.254;2022-10-26T10:15:18;21.89;63.10
75961;SHT30;64644;48.914;2.254;2022-10-26T10:17:48;21.98;63.48
75961;SHT30;64644;48.914;2.254;2022-10-26T10:20:23;22.11;62.60
75961;SHT30;64644;48.914;2.254;2022-10-26T10:22:56;22.21;61.92
75961;SHT30;64644;48.914;2.254;2022-10-26T10:25:34;22.22;62.03
75961;SHT30;64644;48.914;2.254;2022-10-26T10:28:01;22.32;62.06
75961;SHT30;64644;48.914;2.254;2022-10-26T10:30:30;22.37;61.89
75961;SHT30;64644;48.914;2.254;2022-10-26T10:33:07;22.41;61.98
75961;SHT30;64644;48.914;2.254;2022-10-26T10:35:34;22.48;61.55
75961;SHT30;64644;48.914;2.254;2022-10-26T10:38:00;22.60;61.42
75961;SHT30;64644;48.914;2.254;2022-10-26T10:40:27;22.75;61.59
75961;SHT30;64644;48.914;2.254;2022-10-26T10:43:04;22.85;61.62
75961;SHT30;64644;48.914;2.254;2022-10-26T10:45:30;22.92;61.08
75961;SHT30;64644;48.914;2.254;2022-10-26T10:50:38;22.93;60.48
75961;SHT30;64644;48.914;2.254;2022-10-26T10:53:14;23.02;61.08
75961;SHT30;64644;48.914;2.254;2022-10-26T10:55:51;23.10;60.76
75961;SHT30;64644;48.914;2.254;2022-10-26T10:58:26;23.20;61.18
75961;SHT30;64644;48.914;2.254;2022-10-26T11:00:55;23.20;60.61
75961;SHT30;64644;48.914;2.254;2022-10-26T11:03:46;23.30;60.12
75961;SHT30;64644;48.914;2.254;2022-10-26T11:06:22;23.37;59.80
75961;SHT30;64644;48.914;2.254;2022-10-26T11:08:54;23.45;59.16
75961;SHT30;64644;48.914;2.254;2022-10-26T11:14:04;23.61;59.33
75961;SHT30;64644;48.914;2.254;2022-10-26T11:16:53;23.72;59.67
75961;SHT30;64644;48.914;2.254;2022-10-26T11:19:32;23.79;59.63
75961;SHT30;64644;48.914;2.254;2022-10-26T11:22:03;23.77;58.76
75961;SHT30;64644;48.914;2.254;2022-10-26T11:24:48;23.82;59.37
75961;SHT30;64644;48.914;2.254;2022-10-26T11:27:16;23.82;58.35
75961;SHT30;64644;48.914;2.254;2022-10-26T11:30:05;23.75;58.41
75961;SHT30;64644;48.914;2.254;2022-10-26T11:32:40;23.73;58.12
75961;SHT30;64644;48.914;2.254;2022-10-26T11:38:16;23.82;57.98
75961;SHT30;64644;48.914;2.254;2022-10-26T11:43:17;23.97;57.89
75961;SHT30;64644;48.914;2.254;2022-10-26T11:46:00;23.99;57.52
75961;SHT30;64644;48.914;2.254;2022-10-26T11:48:43;24.01;57.69
75961;SHT30;64644;48.914;2.254;2022-10-26T11:51:19;24.01;57.87
75961;SHT30;64644;48.914;2.254;2022-10-26T11:53:46;24.06;57.69
75961;SHT30;64644;48.914;2.254;2022-10-26T11:56:26;24.13;57.63
75961;SHT30;64644;48.914;2.254;2022-10-26T11:58:55;24.18;57.26
75961;SHT30;64644;48.914;2.254;2022-10-26T12:01:21;24.14;56.65
75961;SHT30;64644;48.914;2.254;2022-10-26T12:03:49;24.01;56.66
75961;SHT30;64644;48.914;2.254;2022-10-26T12:06:24;24.04;56.77
75961;SHT30;64644;48.914;2.254;2022-10-26T12:22:30;24.22;56.69
75961;SHT30;64644;48.914;2.254;2022-10-26T12:37:54;23.97;57.57
75961;SHT30;64644;48.914;2.254;2022-10-26T12:46:48;24.07;57.47
75961;SHT30;64644;48.914;2.254;2022-10-26T12:48:49;24.10;57.57
75961;SHT30;64644;48.914;2.254;2022-10-26T12:59:19;24.25;57.47
75961;SHT30;64644;48.914;2.254;2022-10-26T13:04:49;24.34;57.31
75961;SHT30;64644;48.914;2.254;2022-10-26T13:07:21;24.41;57.64
75961;SHT30;64644;48.914;2.254;2022-10-26T13:12:50;24.31;57.50
75961;SHT30;64644;48.914;2.254;2022-10-26T13:15:27;24.25;57.50
75961;SHT30;64644;48.914;2.254;2022-10-26T13:18:06;24.17;57.72
75961;SHT30;64644;48.914;2.254;2022-10-26T13:20:34;24.10;57.62
75961;SHT30;64644;48.914;2.254;2022-10-26T13:23:02;24.10;57.90
75961;SHT30;64644;48.914;2.254;2022-10-26T13:25:29;24.06;57.78
75961;SHT30;64644;48.914;2.254;2022-10-26T13:30:55;24.03;57.85
75961;SHT30;64644;48.914;2.254;2022-10-26T13:33:30;24.01;57.73
75961;SHT30;64644;48.914;2.254;2022-10-26T13:36:01;23.94;57.64
75961;SHT30;64644;48.914;2.254;2022-10-26T13:38:33;23.94;58.08
75961;SHT30;64644;48.914;2.254;2022-10-26T13:41:10;23.93;57.90
75961;SHT30;64644;48.914;2.254;2022-10-26T13:43:39;23.94;57.97
75961;SHT30;64644;48.914;2.254;2022-10-26T13:46:05;23.94;57.98
75961;SHT30;64644;48.914;2.254;2022-10-26T13:48:40;23.92;58.14
75961;SHT30;64644;48.914;2.254;2022-10-26T13:51:15;23.93;58.11
75961;SHT30;64644;48.914;2.254;2022-10-26T13:54:00;23.94;58.37
75961;SHT30;64644;48.914;2.254;2022-10-26T13:56:33;23.90;58.06
75961;SHT30;64644;48.914;2.254;2022-10-26T13:59:02;23.86;58.16
75961;SHT30;64644;48.914;2.254;2022-10-26T14:01:30;23.84;58.10
75961;SHT30;64644;48.914;2.254;2022-10-26T14:03:56;23.82;58.16
75961;SHT30;64644;48.914;2.254;2022-10-26T14:06:26;23.75;58.37
75961;SHT30;64644;48.914;2.254;2022-10-26T14:08:56;23.72;58.69
75961;SHT30;64644;48.914;2.254;2022-10-26T14:11:29;23.70;58.20
75961;SHT30;64644;48.914;2.254;2022-10-26T14:13:55;23.67;58.12
75961;SHT30;64644;48.914;2.254;2022-10-26T14:16:24;23.67;58.46
75961;SHT30;64644;48.914;2.254;2022-10-26T14:18:52;23.66;58.66
75961;SHT30;64644;48.914;2.254;2022-10-26T14:21:19;23.66;58.48
75961;SHT30;64644;48.914;2.254;2022-10-26T14:23:57;23.63;58.65
75961;SHT30;64644;48.914;2.254;2022-10-26T14:26:26;23.61;58.58
75961;SHT30;64644;48.914;2.254;2022-10-26T14:28:55;23.62;58.51
75961;SHT30;64644;48.914;2.254;2022-10-26T14:31:29;23.59;58.74
75961;SHT30;64644;48.914;2.254;2022-10-26T14:33:56;23.52;58.66
75961;SHT30;64644;48.914;2.254;2022-10-26T14:36:28;23.45;58.71
75961;SHT30;64644;48.914;2.254;2022-10-26T14:39:02;23.47;58.81
75961;SHT30;64644;48.914;2.254;2022-10-26T14:41:29;23.45;59.14
75961;SHT30;64644;48.914;2.254;2022-10-26T14:43:56;23.44;59.22
75961;SHT30;64644;48.914;2.254;2022-10-26T14:46:23;23.44;59.16
75961;SHT30;64644;48.914;2.254;2022-10-26T14:48:54;23.39;59.19
75961;SHT30;64644;48.914;2.254;2022-10-26T14:51:25;23.35;59.41
75961;SHT30;64644;48.914;2.254;2022-10-26T14:53:53;23.34;59.33
75961;SHT30;64644;48.914;2.254;2022-10-26T14:59:19;23.28;59.68
75961;SHT30;64644;48.914;2.254;2022-10-26T15:02:10;23.27;59.77
75961;SHT30;64644;48.914;2.254;2022-10-26T15:04:41;23.21;59.55
75961;SHT30;64644;48.914;2.254;2022-10-26T15:07:17;23.15;59.77
75961;SHT30;64644;48.914;2.254;2022-10-26T15:09:50;23.11;59.76
75961;SHT30;64644;48.914;2.254;2022-10-26T15:14:53;23.11;59.89
75961;SHT30;64644;48.914;2.254;2022-10-26T15:17:26;23.07;59.85
75961;SHT30;64644;48.914;2.254;2022-10-26T15:20:03;23.07;59.93
75961;SHT30;64644;48.914;2.254;2022-10-26T15:22:28;23.03;60.01
75961;SHT30;64644;48.914;2.254;2022-10-26T15:24:56;23.03;60.12
75961;SHT30;64644;48.914;2.254;2022-10-26T15:27:22;23.02;60.01
75961;SHT30;64644;48.914;2.254;2022-10-26T15:29:51;22.96;60.11
75961;SHT30;64644;48.914;2.254;2022-10-26T15:32:30;22.93;60.36
75961;SHT30;64644;48.914;2.254;2022-10-26T15:37:44;22.89;60.34
75961;SHT30;64644;48.914;2.254;2022-10-26T15:40:10;22.87;60.51
75961;SHT30;64644;48.914;2.254;2022-10-26T15:42:37;22.83;60.36
75961;SHT30;64644;48.914;2.254;2022-10-26T15:45:04;22.83;60.44
75961;SHT30;64644;48.914;2.254;2022-10-26T15:47:37;22.82;60.41
75961;SHT30;64644;48.914;2.254;2022-10-26T15:50:03;22.82;60.56
75961;SHT30;64644;48.914;2.254;2022-10-26T15:52:30;22.82;60.58
75961;SHT30;64644;48.914;2.254;2022-10-26T15:54:55;22.79;60.55
75961;SHT30;64644;48.914;2.254;2022-10-26T15:57:27;22.76;60.83
75961;SHT30;64644;48.914;2.254;2022-10-26T15:59:52;22.76;60.87
75961;SHT30;64644;48.914;2.254;2022-10-26T16:02:18;22.75;60.55
75961;SHT30;64644;48.914;2.254;2022-10-26T16:04:43;22.75;60.60
75961;SHT30;64644;48.914;2.254;2022-10-26T16:07:13;22.75;60.88
75961;SHT30;64644;48.914;2.254;2022-10-26T16:09:40;22.75;60.80
75961;SHT30;64644;48.914;2.254;2022-10-26T16:12:10;22.68;60.90
75961;SHT30;64644;48.914;2.254;2022-10-26T16:14:37;22.69;60.90
75961;SHT30;64644;48.914;2.254;2022-10-26T16:17:03;22.68;61.12
75961;SHT30;64644;48.914;2.254;2022-10-26T16:19:28;22.65;61.23
75961;SHT30;64644;48.914;2.254;2022-10-26T16:21:54;22.60;61.26
75961;SHT30;64644;48.914;2.254;2022-10-26T16:24:19;22.60;61.06
75961;SHT30;64644;48.914;2.254;2022-10-26T16:26:45;22.55;61.19
75961;SHT30;64644;48.914;2.254;2022-10-26T16:29:10;22.56;61.20
75961;SHT30;64644;48.914;2.254;2022-10-26T16:31:36;22.53;61.56
75961;SHT30;64644;48.914;2.254;2022-10-26T16:34:01;22.51;61.34
75961;SHT30;64644;48.914;2.254;2022-10-26T16:36:27;22.48;61.62
75961;SHT30;64644;48.914;2.254;2022-10-26T16:38:52;22.45;61.48
75961;SHT30;64644;48.914;2.254;2022-10-26T16:41:18;22.45;61.97
75961;SHT30;64644;48.914;2.254;2022-10-26T16:43:44;22.42;61.77
75961;SHT30;64644;48.914;2.254;2022-10-26T16:46:17;22.38;61.98
75961;SHT30;64644;48.914;2.254;2022-10-26T16:48:44;22.35;61.94
75961;SHT30;64644;48.914;2.254;2022-10-26T16:51:15;22.31;62.35
75961;SHT30;64644;48.914;2.254;2022-10-26T16:53:42;22.30;62.50
75961;SHT30;64644;48.914;2.254;2022-10-26T16:56:10;22.24;62.54
75961;SHT30;64644;48.914;2.254;2022-10-26T16:58:35;22.21;62.41
75961;SHT30;64644;48.914;2.254;2022-10-26T17:01:01;22.15;62.59
75961;SHT30;64644;48.914;2.254;2022-10-26T17:03:27;22.15;63.01
75961;SHT30;64644;48.914;2.254;2022-10-26T17:05:56;22.11;62.95
75961;SHT30;64644;48.914;2.254;2022-10-26T17:08:22;22.10;63.15
75961;SHT30;64644;48.914;2.254;2022-10-26T17:10:48;22.03;63.17
75961;SHT30;64644;48.914;2.254;2022-10-26T17:13:13;22.00;63.27
75961;SHT30;64644;48.914;2.254;2022-10-26T17:15:38;21.97;63.36
75961;SHT30;64644;48.914;2.254;2022-10-26T17:18:04;21.96;63.49
75961;SHT30;64644;48.914;2.254;2022-10-26T17:20:29;21.89;63.53
75961;SHT30;64644;48.914;2.254;2022-10-26T17:22:55;21.89;63.60
75961;SHT30;64644;48.914;2.254;2022-10-26T17:25:22;21.86;63.62
75961;SHT30;64644;48.914;2.254;2022-10-26T17:27:47;21.85;63.57
75961;SHT30;64644;48.914;2.254;2022-10-26T17:30:13;21.79;63.90
75961;SHT30;64644;48.914;2.254;2022-10-26T17:32:38;21.76;63.84